Terminal Aerodrome Forecast
Issued by NWS Wilmington, OH

Current Version | Previous Version | Graphics & Text | Print | Product List | Glossary On
Versions: 1 2 3 4 5 6 7 8 9 10 11 12 13 14 15 16 17 18 19 20 21 22 23 24 25 26 27 28 29
793
FTUS41 KILN 132343
TAFDAY
TAF
KDAY 132343Z 1400/1424 06008KT P6SM OVC120
     FM140400 07006KT P6SM VCSH SCT050 OVC090
      TEMPO 1407/1409 -FZRA
     FM140900 07006KT P6SM VCSH BKN015 OVC025
     FM141200 07003KT 5SM BR VCSH OVC008
     FM141600 07004KT 5SM -FZRA BR OVC008
     FM141800 31003KT P6SM VCSH OVC018
     FM142000 33004KT P6SM OVC018=

USA.gov is the U.S. government's official web portal to all federal, state and local government web resources and services.